sensor_id;sensor_type;location;lat;lon;timestamp;P1;durP1;ratioP1;P2;durP2;ratioP2
8895;SDS011;4484;48.928;10.066;2022-12-18T00:01:15;40.20;;;22.13;;
8895;SDS011;4484;48.928;10.066;2022-12-18T00:03:53;41.23;;;23.37;;
8895;SDS011;4484;48.928;10.066;2022-12-18T00:06:22;38.88;;;23.05;;
8895;SDS011;4484;48.928;10.066;2022-12-18T00:08:50;40.72;;;22.60;;
8895;SDS011;4484;48.928;10.066;2022-12-18T00:11:18;37.63;;;22.30;;
8895;SDS011;4484;48.928;10.066;2022-12-18T00:13:46;48.00;;;24.63;;
8895;SDS011;4484;48.928;10.066;2022-12-18T00:16:18;46.57;;;25.37;;
8895;SDS011;4484;48.928;10.066;2022-12-18T00:18:48;42.60;;;23.63;;
8895;SDS011;4484;48.928;10.066;2022-12-18T00:21:16;43.27;;;24.93;;
8895;SDS011;4484;48.928;10.066;2022-12-18T00:23:45;44.67;;;24.63;;
8895;SDS011;4484;48.928;10.066;2022-12-18T00:26:17;46.95;;;25.25;;
8895;SDS011;4484;48.928;10.066;2022-12-18T00:28:46;42.20;;;24.30;;
8895;SDS011;4484;48.928;10.066;2022-12-18T00:31:14;41.63;;;25.80;;
8895;SDS011;4484;48.928;10.066;2022-12-18T00:33:44;45.07;;;25.47;;
8895;SDS011;4484;48.928;10.066;2022-12-18T00:38:42;54.77;;;27.33;;
8895;SDS011;4484;48.928;10.066;2022-12-18T00:41:10;49.53;;;26.23;;
8895;SDS011;4484;48.928;10.066;2022-12-18T00:43:39;46.00;;;24.80;;
8895;SDS011;4484;48.928;10.066;2022-12-18T00:46:06;49.58;;;27.40;;
8895;SDS011;4484;48.928;10.066;2022-12-18T00:48:34;43.53;;;24.35;;
8895;SDS011;4484;48.928;10.066;2022-12-18T00:51:02;49.17;;;25.70;;
8895;SDS011;4484;48.928;10.066;2022-12-18T00:53:28;50.15;;;26.60;;
8895;SDS011;4484;48.928;10.066;2022-12-18T00:55:55;54.22;;;26.45;;
8895;SDS011;4484;48.928;10.066;2022-12-18T00:58:22;56.72;;;28.20;;
8895;SDS011;4484;48.928;10.066;2022-12-18T01:00:49;49.42;;;27.83;;
8895;SDS011;4484;48.928;10.066;2022-12-18T01:03:16;47.95;;;26.17;;
8895;SDS011;4484;48.928;10.066;2022-12-18T01:05:43;49.03;;;26.23;;
8895;SDS011;4484;48.928;10.066;2022-12-18T01:08:10;51.47;;;26.23;;
8895;SDS011;4484;48.928;10.066;2022-12-18T01:10:42;59.30;;;29.23;;
8895;SDS011;4484;48.928;10.066;2022-12-18T01:13:10;54.05;;;27.05;;
8895;SDS011;4484;48.928;10.066;2022-12-18T01:15:37;53.13;;;27.35;;
8895;SDS011;4484;48.928;10.066;2022-12-18T01:18:03;56.67;;;28.13;;
8895;SDS011;4484;48.928;10.066;2022-12-18T01:20:32;53.22;;;26.63;;
8895;SDS011;4484;48.928;10.066;2022-12-18T01:22:59;52.73;;;26.43;;
8895;SDS011;4484;48.928;10.066;2022-12-18T01:25:26;54.50;;;28.27;;
8895;SDS011;4484;48.928;10.066;2022-12-18T01:27:53;52.03;;;26.27;;
8895;SDS011;4484;48.928;10.066;2022-12-18T01:30:20;57.20;;;27.10;;
8895;SDS011;4484;48.928;10.066;2022-12-18T01:32:47;52.30;;;25.80;;
8895;SDS011;4484;48.928;10.066;2022-12-18T01:35:14;59.17;;;27.70;;
8895;SDS011;4484;48.928;10.066;2022-12-18T01:37:40;59.17;;;27.80;;
8895;SDS011;4484;48.928;10.066;2022-12-18T01:40:07;57.20;;;26.35;;
8895;SDS011;4484;48.928;10.066;2022-12-18T01:42:35;53.85;;;27.48;;
8895;SDS011;4484;48.928;10.066;2022-12-18T01:45:06;50.90;;;27.55;;
8895;SDS011;4484;48.928;10.066;2022-12-18T01:47:37;54.40;;;27.02;;
8895;SDS011;4484;48.928;10.066;2022-12-18T01:52:56;55.63;;;27.48;;
8895;SDS011;4484;48.928;10.066;2022-12-18T01:55:30;60.00;;;29.00;;
8895;SDS011;4484;48.928;10.066;2022-12-18T01:58:02;67.72;;;30.85;;
8895;SDS011;4484;48.928;10.066;2022-12-18T02:00:30;55.40;;;27.87;;
8895;SDS011;4484;48.928;10.066;2022-12-18T02:02:57;59.92;;;27.67;;
8895;SDS011;4484;48.928;10.066;2022-12-18T02:05:29;59.58;;;27.73;;
8895;SDS011;4484;48.928;10.066;2022-12-18T02:08:09;55.15;;;27.05;;
8895;SDS011;4484;48.928;10.066;2022-12-18T02:18:53;57.37;;;27.67;;
8895;SDS011;4484;48.928;10.066;2022-12-18T02:21:28;66.00;;;29.00;;
8895;SDS011;4484;48.928;10.066;2022-12-18T02:27:12;57.47;;;26.73;;
8895;SDS011;4484;48.928;10.066;2022-12-18T02:29:25;56.00;;;26.70;;
8895;SDS011;4484;48.928;10.066;2022-12-18T02:31:57;59.90;;;27.95;;
8895;SDS011;4484;48.928;10.066;2022-12-18T02:34:27;64.22;;;29.50;;
8895;SDS011;4484;48.928;10.066;2022-12-18T02:36:57;61.03;;;26.92;;
8895;SDS011;4484;48.928;10.066;2022-12-18T02:39:28;58.20;;;28.40;;
8895;SDS011;4484;48.928;10.066;2022-12-18T02:42:01;55.90;;;27.08;;
8895;SDS011;4484;48.928;10.066;2022-12-18T02:44:34;53.10;;;26.17;;
8895;SDS011;4484;48.928;10.066;2022-12-18T02:47:08;56.47;;;26.85;;
8895;SDS011;4484;48.928;10.066;2022-12-18T02:52:42;52.92;;;25.48;;
8895;SDS011;4484;48.928;10.066;2022-12-18T02:55:38;46.38;;;23.83;;
8895;SDS011;4484;48.928;10.066;2022-12-18T02:59:09;52.90;;;24.48;;
8895;SDS011;4484;48.928;10.066;2022-12-18T03:01:57;46.80;;;24.35;;
8895;SDS011;4484;48.928;10.066;2022-12-18T03:04:33;50.40;;;24.88;;
8895;SDS011;4484;48.928;10.066;2022-12-18T03:07:46;49.30;;;24.23;;
8895;SDS011;4484;48.928;10.066;2022-12-18T03:10:41;51.83;;;24.27;;
8895;SDS011;4484;48.928;10.066;2022-12-18T03:13:15;43.30;;;22.58;;
8895;SDS011;4484;48.928;10.066;2022-12-18T03:15:50;49.80;;;24.17;;
8895;SDS011;4484;48.928;10.066;2022-12-18T03:18:26;45.92;;;22.95;;
8895;SDS011;4484;48.928;10.066;2022-12-18T03:21:00;45.40;;;21.98;;
8895;SDS011;4484;48.928;10.066;2022-12-18T03:23:35;49.55;;;22.65;;
8895;SDS011;4484;48.928;10.066;2022-12-18T03:26:09;45.30;;;22.80;;
8895;SDS011;4484;48.928;10.066;2022-12-18T03:28:42;46.45;;;23.73;;
8895;SDS011;4484;48.928;10.066;2022-12-18T03:31:13;51.53;;;23.67;;
8895;SDS011;4484;48.928;10.066;2022-12-18T03:33:51;48.63;;;22.50;;
8895;SDS011;4484;48.928;10.066;2022-12-18T03:36:20;46.58;;;22.40;;
8895;SDS011;4484;48.928;10.066;2022-12-18T03:38:49;48.55;;;23.42;;
8895;SDS011;4484;48.928;10.066;2022-12-18T03:41:31;45.58;;;20.73;;
8895;SDS011;4484;48.928;10.066;2022-12-18T03:49:40;44.00;;;21.10;;
8895;SDS011;4484;48.928;10.066;2022-12-18T03:54:51;40.13;;;19.88;;
8895;SDS011;4484;48.928;10.066;2022-12-18T03:57:23;37.33;;;18.70;;
8895;SDS011;4484;48.928;10.066;2022-12-18T03:59:56;34.05;;;17.95;;
8895;SDS011;4484;48.928;10.066;2022-12-18T04:02:42;37.47;;;18.80;;
8895;SDS011;4484;48.928;10.066;2022-12-18T04:05:19;33.35;;;16.83;;
8895;SDS011;4484;48.928;10.066;2022-12-18T04:07:47;34.03;;;17.20;;
8895;SDS011;4484;48.928;10.066;2022-12-18T04:10:17;31.90;;;17.60;;
8895;SDS011;4484;48.928;10.066;2022-12-18T04:12:45;36.38;;;17.90;;
8895;SDS011;4484;48.928;10.066;2022-12-18T04:15:14;35.13;;;17.25;;
8895;SDS011;4484;48.928;10.066;2022-12-18T04:17:50;34.08;;;17.15;;
8895;SDS011;4484;48.928;10.066;2022-12-18T04:20:21;31.52;;;16.55;;
8895;SDS011;4484;48.928;10.066;2022-12-18T04:22:48;35.95;;;17.50;;
8895;SDS011;4484;48.928;10.066;2022-12-18T04:25:17;34.72;;;17.55;;
8895;SDS011;4484;48.928;10.066;2022-12-18T04:28:04;32.97;;;16.60;;
8895;SDS011;4484;48.928;10.066;2022-12-18T04:30:32;32.47;;;15.45;;
8895;SDS011;4484;48.928;10.066;2022-12-18T04:32:59;32.47;;;16.10;;
8895;SDS011;4484;48.928;10.066;2022-12-18T04:35:28;29.05;;;15.65;;
8895;SDS011;4484;48.928;10.066;2022-12-18T04:37:55;35.30;;;17.13;;
8895;SDS011;4484;48.928;10.066;2022-12-18T04:40:23;34.05;;;17.42;;
8895;SDS011;4484;48.928;10.066;2022-12-18T04:42:51;37.10;;;18.20;;
8895;SDS011;4484;48.928;10.066;2022-12-18T04:45:18;33.28;;;16.65;;
8895;SDS011;4484;48.928;10.066;2022-12-18T04:47:45;41.60;;;18.95;;
8895;SDS011;4484;48.928;10.066;2022-12-18T04:50:12;37.50;;;16.65;;
8895;SDS011;4484;48.928;10.066;2022-12-18T04:52:39;37.88;;;17.45;;
8895;SDS011;4484;48.928;10.066;2022-12-18T04:55:08;37.53;;;18.17;;
8895;SDS011;4484;48.928;10.066;2022-12-18T04:57:35;34.97;;;18.17;;
8895;SDS011;4484;48.928;10.066;2022-12-18T05:00:02;33.85;;;17.98;;
8895;SDS011;4484;48.928;10.066;2022-12-18T05:02:30;35.13;;;17.80;;
8895;SDS011;4484;48.928;10.066;2022-12-18T05:04:57;37.50;;;19.05;;
8895;SDS011;4484;48.928;10.066;2022-12-18T05:07:24;33.85;;;17.55;;
8895;SDS011;4484;48.928;10.066;2022-12-18T05:09:51;40.38;;;19.08;;
8895;SDS011;4484;48.928;10.066;2022-12-18T05:12:18;43.42;;;19.73;;
8895;SDS011;4484;48.928;10.066;2022-12-18T05:14:46;41.47;;;19.48;;
8895;SDS011;4484;48.928;10.066;2022-12-18T05:17:13;41.13;;;19.55;;
8895;SDS011;4484;48.928;10.066;2022-12-18T05:19:40;40.03;;;19.35;;
8895;SDS011;4484;48.928;10.066;2022-12-18T05:22:07;40.72;;;19.60;;
8895;SDS011;4484;48.928;10.066;2022-12-18T05:24:35;38.55;;;18.27;;
8895;SDS011;4484;48.928;10.066;2022-12-18T05:27:02;37.65;;;18.50;;
8895;SDS011;4484;48.928;10.066;2022-12-18T05:29:29;39.13;;;19.40;;
8895;SDS011;4484;48.928;10.066;2022-12-18T05:31:56;43.20;;;20.63;;
8895;SDS011;4484;48.928;10.066;2022-12-18T05:34:24;41.20;;;19.48;;
8895;SDS011;4484;48.928;10.066;2022-12-18T05:36:51;45.00;;;20.38;;
8895;SDS011;4484;48.928;10.066;2022-12-18T05:39:18;39.75;;;18.45;;
8895;SDS011;4484;48.928;10.066;2022-12-18T05:41:45;39.83;;;19.02;;
8895;SDS011;4484;48.928;10.066;2022-12-18T05:44:12;44.55;;;19.23;;
8895;SDS011;4484;48.928;10.066;2022-12-18T05:46:39;39.08;;;18.75;;
8895;SDS011;4484;48.928;10.066;2022-12-18T05:49:07;47.15;;;20.00;;
8895;SDS011;4484;48.928;10.066;2022-12-18T05:51:34;40.38;;;19.15;;
8895;SDS011;4484;48.928;10.066;2022-12-18T05:54:01;44.10;;;20.63;;
8895;SDS011;4484;48.928;10.066;2022-12-18T05:56:28;44.42;;;20.48;;
8895;SDS011;4484;48.928;10.066;2022-12-18T05:58:55;42.47;;;20.13;;
8895;SDS011;4484;48.928;10.066;2022-12-18T06:01:23;46.10;;;20.02;;
8895;SDS011;4484;48.928;10.066;2022-12-18T06:03:52;48.83;;;20.97;;
8895;SDS011;4484;48.928;10.066;2022-12-18T06:06:27;43.83;;;18.93;;
8895;SDS011;4484;48.928;10.066;2022-12-18T06:08:55;47.63;;;21.20;;
8895;SDS011;4484;48.928;10.066;2022-12-18T06:11:24;47.90;;;19.57;;
8895;SDS011;4484;48.928;10.066;2022-12-18T06:13:53;44.60;;;21.57;;
8895;SDS011;4484;48.928;10.066;2022-12-18T06:16:24;44.70;;;21.77;;
8895;SDS011;4484;48.928;10.066;2022-12-18T06:18:53;47.80;;;21.37;;
8895;SDS011;4484;48.928;10.066;2022-12-18T06:21:25;44.70;;;20.13;;
8895;SDS011;4484;48.928;10.066;2022-12-18T06:23:52;46.40;;;21.43;;
8895;SDS011;4484;48.928;10.066;2022-12-18T06:26:20;54.33;;;22.30;;
8895;SDS011;4484;48.928;10.066;2022-12-18T06:28:53;46.42;;;19.77;;
8895;SDS011;4484;48.928;10.066;2022-12-18T06:31:20;48.00;;;20.13;;
8895;SDS011;4484;48.928;10.066;2022-12-18T06:33:47;56.97;;;22.33;;
8895;SDS011;4484;48.928;10.066;2022-12-18T06:36:14;52.22;;;21.40;;
8895;SDS011;4484;48.928;10.066;2022-12-18T06:38:43;55.58;;;21.70;;
8895;SDS011;4484;48.928;10.066;2022-12-18T06:41:11;50.30;;;21.50;;
8895;SDS011;4484;48.928;10.066;2022-12-18T06:43:43;54.45;;;23.50;;
8895;SDS011;4484;48.928;10.066;2022-12-18T06:46:10;52.42;;;21.95;;
8895;SDS011;4484;48.928;10.066;2022-12-18T06:48:38;52.65;;;21.67;;
8895;SDS011;4484;48.928;10.066;2022-12-18T06:51:05;51.53;;;21.98;;
8895;SDS011;4484;48.928;10.066;2022-12-18T06:53:32;54.03;;;21.50;;
8895;SDS011;4484;48.928;10.066;2022-12-18T06:56:00;55.05;;;22.10;;
8895;SDS011;4484;48.928;10.066;2022-12-18T06:58:35;55.47;;;22.17;;
8895;SDS011;4484;48.928;10.066;2022-12-18T07:01:04;53.15;;;22.15;;
8895;SDS011;4484;48.928;10.066;2022-12-18T07:03:33;53.97;;;22.58;;
8895;SDS011;4484;48.928;10.066;2022-12-18T07:06:00;52.90;;;21.75;;
8895;SDS011;4484;48.928;10.066;2022-12-18T07:08:28;57.57;;;21.63;;
8895;SDS011;4484;48.928;10.066;2022-12-18T07:10:56;51.13;;;21.92;;
8895;SDS011;4484;48.928;10.066;2022-12-18T07:13:23;54.50;;;22.15;;
8895;SDS011;4484;48.928;10.066;2022-12-18T07:15:50;48.95;;;20.52;;
8895;SDS011;4484;48.928;10.066;2022-12-18T07:18:17;49.53;;;19.13;;
8895;SDS011;4484;48.928;10.066;2022-12-18T07:20:44;48.65;;;20.55;;
8895;SDS011;4484;48.928;10.066;2022-12-18T07:23:13;52.73;;;20.50;;
8895;SDS011;4484;48.928;10.066;2022-12-18T07:25:39;50.70;;;20.77;;
8895;SDS011;4484;48.928;10.066;2022-12-18T07:28:06;51.53;;;21.37;;
8895;SDS011;4484;48.928;10.066;2022-12-18T07:30:40;52.20;;;20.80;;
8895;SDS011;4484;48.928;10.066;2022-12-18T07:33:07;52.78;;;21.75;;
8895;SDS011;4484;48.928;10.066;2022-12-18T07:35:34;55.45;;;21.33;;
8895;SDS011;4484;48.928;10.066;2022-12-18T07:38:01;51.37;;;21.33;;
8895;SDS011;4484;48.928;10.066;2022-12-18T07:40:28;48.70;;;20.40;;
8895;SDS011;4484;48.928;10.066;2022-12-18T07:42:55;43.50;;;20.73;;
8895;SDS011;4484;48.928;10.066;2022-12-18T07:45:22;52.57;;;21.77;;
8895;SDS011;4484;48.928;10.066;2022-12-18T07:47:48;48.43;;;20.80;;
8895;SDS011;4484;48.928;10.066;2022-12-18T07:50:16;49.53;;;20.53;;
8895;SDS011;4484;48.928;10.066;2022-12-18T07:52:42;45.07;;;19.67;;
8895;SDS011;4484;48.928;10.066;2022-12-18T07:55:09;43.88;;;21.00;;
8895;SDS011;4484;48.928;10.066;2022-12-18T07:57:36;44.03;;;19.83;;
8895;SDS011;4484;48.928;10.066;2022-12-18T08:00:23;47.77;;;19.47;;
8895;SDS011;4484;48.928;10.066;2022-12-18T08:02:50;51.30;;;20.03;;
8895;SDS011;4484;48.928;10.066;2022-12-18T08:05:17;45.17;;;20.50;;
8895;SDS011;4484;48.928;10.066;2022-12-18T08:07:44;43.33;;;19.20;;
8895;SDS011;4484;48.928;10.066;2022-12-18T08:10:11;47.20;;;20.27;;
8895;SDS011;4484;48.928;10.066;2022-12-18T08:12:38;43.57;;;18.57;;
8895;SDS011;4484;48.928;10.066;2022-12-18T08:15:05;43.40;;;18.73;;
8895;SDS011;4484;48.928;10.066;2022-12-18T08:17:32;51.13;;;19.43;;
8895;SDS011;4484;48.928;10.066;2022-12-18T08:20:00;49.60;;;19.57;;
8895;SDS011;4484;48.928;10.066;2022-12-18T08:22:27;45.63;;;19.83;;
8895;SDS011;4484;48.928;10.066;2022-12-18T08:24:54;47.90;;;20.23;;
8895;SDS011;4484;48.928;10.066;2022-12-18T08:27:21;48.90;;;20.00;;
8895;SDS011;4484;48.928;10.066;2022-12-18T08:29:56;47.97;;;20.37;;
8895;SDS011;4484;48.928;10.066;2022-12-18T08:32:24;43.27;;;19.67;;
8895;SDS011;4484;48.928;10.066;2022-12-18T08:34:52;44.87;;;19.00;;
8895;SDS011;4484;48.928;10.066;2022-12-18T08:37:19;40.13;;;19.87;;
8895;SDS011;4484;48.928;10.066;2022-12-18T08:39:46;44.17;;;19.37;;
8895;SDS011;4484;48.928;10.066;2022-12-18T08:42:13;41.90;;;18.77;;
8895;SDS011;4484;48.928;10.066;2022-12-18T08:44:58;45.10;;;19.27;;
8895;SDS011;4484;48.928;10.066;2022-12-18T08:47:25;41.77;;;18.57;;
8895;SDS011;4484;48.928;10.066;2022-12-18T08:49:52;48.63;;;19.80;;
8895;SDS011;4484;48.928;10.066;2022-12-18T08:52:19;41.47;;;16.57;;
8895;SDS011;4484;48.928;10.066;2022-12-18T08:54:46;36.30;;;16.57;;
8895;SDS011;4484;48.928;10.066;2022-12-18T08:57:13;37.67;;;17.43;;
8895;SDS011;4484;48.928;10.066;2022-12-18T08:59:39;36.70;;;16.40;;
8895;SDS011;4484;48.928;10.066;2022-12-18T09:02:08;39.00;;;17.60;;
8895;SDS011;4484;48.928;10.066;2022-12-18T09:04:43;39.03;;;16.83;;
8895;SDS011;4484;48.928;10.066;2022-12-18T09:07:21;37.63;;;17.70;;
8895;SDS011;4484;48.928;10.066;2022-12-18T09:09:48;38.60;;;16.57;;
8895;SDS011;4484;48.928;10.066;2022-12-18T09:12:15;37.23;;;16.93;;
8895;SDS011;4484;48.928;10.066;2022-12-18T09:14:42;40.03;;;16.83;;
8895;SDS011;4484;48.928;10.066;2022-12-18T09:17:09;39.20;;;15.83;;
8895;SDS011;4484;48.928;10.066;2022-12-18T09:19:36;33.33;;;15.43;;
8895;SDS011;4484;48.928;10.066;2022-12-18T09:22:03;37.03;;;15.60;;
8895;SDS011;4484;48.928;10.066;2022-12-18T09:24:29;32.07;;;14.57;;
8895;SDS011;4484;48.928;10.066;2022-12-18T09:26:56;33.87;;;15.97;;
8895;SDS011;4484;48.928;10.066;2022-12-18T09:29:24;30.10;;;15.07;;
8895;SDS011;4484;48.928;10.066;2022-12-18T09:31:51;34.90;;;15.33;;
8895;SDS011;4484;48.928;10.066;2022-12-18T09:34:18;39.03;;;16.40;;
8895;SDS011;4484;48.928;10.066;2022-12-18T09:36:47;33.43;;;16.07;;
8895;SDS011;4484;48.928;10.066;2022-12-18T09:39:16;30.13;;;14.23;;
8895;SDS011;4484;48.928;10.066;2022-12-18T09:41:51;34.20;;;15.33;;
8895;SDS011;4484;48.928;10.066;2022-12-18T09:44:36;33.93;;;16.33;;
8895;SDS011;4484;48.928;10.066;2022-12-18T09:49:51;37.97;;;15.27;;
8895;SDS011;4484;48.928;10.066;2022-12-18T09:58:04;39.00;;;17.07;;
8895;SDS011;4484;48.928;10.066;2022-12-18T10:00:43;33.60;;;15.60;;
8895;SDS011;4484;48.928;10.066;2022-12-18T10:03:14;32.63;;;15.40;;
8895;SDS011;4484;48.928;10.066;2022-12-18T10:11:22;26.73;;;12.53;;
8895;SDS011;4484;48.928;10.066;2022-12-18T10:14:15;29.27;;;14.17;;
8895;SDS011;4484;48.928;10.066;2022-12-18T10:17:13;23.47;;;12.67;;
8895;SDS011;4484;48.928;10.066;2022-12-18T10:19:53;28.37;;;12.77;;
8895;SDS011;4484;48.928;10.066;2022-12-18T10:22:50;27.93;;;14.20;;
8895;SDS011;4484;48.928;10.066;2022-12-18T10:25:24;26.67;;;14.40;;
8895;SDS011;4484;48.928;10.066;2022-12-18T10:28:18;27.10;;;13.43;;
8895;SDS011;4484;48.928;10.066;2022-12-18T10:30:46;28.00;;;13.83;;
8895;SDS011;4484;48.928;10.066;2022-12-18T10:33:17;25.83;;;13.33;;
8895;SDS011;4484;48.928;10.066;2022-12-18T10:35:45;24.10;;;13.87;;
8895;SDS011;4484;48.928;10.066;2022-12-18T10:40:51;25.03;;;12.83;;
8895;SDS011;4484;48.928;10.066;2022-12-18T10:51:27;25.47;;;13.70;;
8895;SDS011;4484;48.928;10.066;2022-12-18T10:54:03;26.40;;;14.40;;
8895;SDS011;4484;48.928;10.066;2022-12-18T10:56:33;26.10;;;14.70;;
8895;SDS011;4484;48.928;10.066;2022-12-18T10:59:05;24.50;;;14.27;;
8895;SDS011;4484;48.928;10.066;2022-12-18T11:01:47;25.07;;;14.93;;
8895;SDS011;4484;48.928;10.066;2022-12-18T11:04:19;25.77;;;14.10;;
8895;SDS011;4484;48.928;10.066;2022-12-18T11:06:52;24.63;;;13.80;;
8895;SDS011;4484;48.928;10.066;2022-12-18T11:09:20;26.13;;;14.53;;
8895;SDS011;4484;48.928;10.066;2022-12-18T11:11:49;24.60;;;14.20;;
8895;SDS011;4484;48.928;10.066;2022-12-18T11:14:27;23.43;;;14.20;;
8895;SDS011;4484;48.928;10.066;2022-12-18T11:16:59;22.77;;;14.43;;
8895;SDS011;4484;48.928;10.066;2022-12-18T11:19:56;23.43;;;14.37;;
8895;SDS011;4484;48.928;10.066;2022-12-18T11:27:52;23.27;;;13.67;;
8895;SDS011;4484;48.928;10.066;2022-12-18T11:30:27;24.80;;;13.83;;
8895;SDS011;4484;48.928;10.066;2022-12-18T11:33:03;22.93;;;13.90;;
8895;SDS011;4484;48.928;10.066;2022-12-18T11:38:23;25.50;;;14.53;;
8895;SDS011;4484;48.928;10.066;2022-12-18T11:40:53;24.90;;;13.23;;
8895;SDS011;4484;48.928;10.066;2022-12-18T11:43:28;24.93;;;14.30;;
8895;SDS011;4484;48.928;10.066;2022-12-18T11:46:13;25.87;;;15.00;;
8895;SDS011;4484;48.928;10.066;2022-12-18T11:51:22;22.73;;;13.43;;
8895;SDS011;4484;48.928;10.066;2022-12-18T11:53:56;25.07;;;14.03;;
8895;SDS011;4484;48.928;10.066;2022-12-18T11:59:15;25.30;;;13.20;;
8895;SDS011;4484;48.928;10.066;2022-12-18T12:26:15;25.50;;;13.53;;
8895;SDS011;4484;48.928;10.066;2022-12-18T12:39:50;26.40;;;14.23;;
8895;SDS011;4484;48.928;10.066;2022-12-18T12:45:27;27.27;;;15.37;;
8895;SDS011;4484;48.928;10.066;2022-12-18T12:48:01;23.80;;;13.77;;
8895;SDS011;4484;48.928;10.066;2022-12-18T12:50:33;25.13;;;13.47;;
8895;SDS011;4484;48.928;10.066;2022-12-18T12:53:01;26.57;;;14.20;;
8895;SDS011;4484;48.928;10.066;2022-12-18T12:55:37;29.13;;;13.83;;
8895;SDS011;4484;48.928;10.066;2022-12-18T13:03:58;24.07;;;12.50;;
8895;SDS011;4484;48.928;10.066;2022-12-18T13:09:04;24.43;;;13.43;;
8895;SDS011;4484;48.928;10.066;2022-12-18T13:14:29;25.37;;;13.03;;
8895;SDS011;4484;48.928;10.066;2022-12-18T13:19:51;27.20;;;13.80;;
8895;SDS011;4484;48.928;10.066;2022-12-18T13:22:43;26.53;;;13.57;;
8895;SDS011;4484;48.928;10.066;2022-12-18T13:28:06;25.07;;;13.60;;
8895;SDS011;4484;48.928;10.066;2022-12-18T13:30:47;28.80;;;13.57;;
8895;SDS011;4484;48.928;10.066;2022-12-18T13:33:30;28.67;;;14.40;;
8895;SDS011;4484;48.928;10.066;2022-12-18T13:36:37;24.70;;;13.17;;
8895;SDS011;4484;48.928;10.066;2022-12-18T13:45:34;26.53;;;12.60;;
8895;SDS011;4484;48.928;10.066;2022-12-18T13:48:16;30.10;;;13.60;;
8895;SDS011;4484;48.928;10.066;2022-12-18T13:50:48;26.20;;;13.07;;
8895;SDS011;4484;48.928;10.066;2022-12-18T13:53:19;26.07;;;13.00;;
8895;SDS011;4484;48.928;10.066;2022-12-18T13:55:51;28.30;;;14.33;;
8895;SDS011;4484;48.928;10.066;2022-12-18T13:58:18;31.53;;;15.00;;
8895;SDS011;4484;48.928;10.066;2022-12-18T14:00:45;25.83;;;14.23;;
8895;SDS011;4484;48.928;10.066;2022-12-18T14:03:24;25.97;;;14.13;;
8895;SDS011;4484;48.928;10.066;2022-12-18T14:05:56;23.97;;;12.23;;
8895;SDS011;4484;48.928;10.066;2022-12-18T14:08:36;27.00;;;14.13;;
8895;SDS011;4484;48.928;10.066;2022-12-18T14:11:19;22.93;;;12.10;;
8895;SDS011;4484;48.928;10.066;2022-12-18T14:13:51;27.17;;;13.60;;
8895;SDS011;4484;48.928;10.066;2022-12-18T14:16:19;25.93;;;12.87;;
8895;SDS011;4484;48.928;10.066;2022-12-18T14:18:50;24.63;;;13.87;;
8895;SDS011;4484;48.928;10.066;2022-12-18T14:21:37;23.73;;;11.83;;
8895;SDS011;4484;48.928;10.066;2022-12-18T14:26:35;29.00;;;13.27;;
8895;SDS011;4484;48.928;10.066;2022-12-18T14:32:03;27.13;;;12.57;;
8895;SDS011;4484;48.928;10.066;2022-12-18T14:34:44;21.37;;;11.53;;
8895;SDS011;4484;48.928;10.066;2022-12-18T14:37:21;26.07;;;12.90;;
8895;SDS011;4484;48.928;10.066;2022-12-18T14:42:27;29.20;;;14.40;;
8895;SDS011;4484;48.928;10.066;2022-12-18T14:51:02;30.30;;;15.83;;
8895;SDS011;4484;48.928;10.066;2022-12-18T14:53:39;28.80;;;15.07;;
8895;SDS011;4484;48.928;10.066;2022-12-18T14:56:21;24.77;;;12.30;;
8895;SDS011;4484;48.928;10.066;2022-12-18T14:58:53;26.93;;;13.03;;
8895;SDS011;4484;48.928;10.066;2022-12-18T15:03:56;28.00;;;14.20;;
8895;SDS011;4484;48.928;10.066;2022-12-18T15:06:32;32.93;;;14.57;;
8895;SDS011;4484;48.928;10.066;2022-12-18T15:09:02;27.70;;;14.30;;
8895;SDS011;4484;48.928;10.066;2022-12-18T15:11:46;27.93;;;13.47;;
8895;SDS011;4484;48.928;10.066;2022-12-18T15:16:58;25.73;;;13.50;;
8895;SDS011;4484;48.928;10.066;2022-12-18T15:22:11;28.03;;;13.80;;
8895;SDS011;4484;48.928;10.066;2022-12-18T15:24:45;24.10;;;12.63;;
8895;SDS011;4484;48.928;10.066;2022-12-18T15:32:48;32.07;;;14.73;;
8895;SDS011;4484;48.928;10.066;2022-12-18T15:35:23;25.50;;;13.50;;
8895;SDS011;4484;48.928;10.066;2022-12-18T15:37:51;27.73;;;14.47;;
8895;SDS011;4484;48.928;10.066;2022-12-18T15:40:22;28.43;;;13.70;;
8895;SDS011;4484;48.928;10.066;2022-12-18T15:42:51;31.93;;;15.27;;
8895;SDS011;4484;48.928;10.066;2022-12-18T15:45:39;24.00;;;12.60;;
8895;SDS011;4484;48.928;10.066;2022-12-18T15:48:15;25.73;;;13.17;;
8895;SDS011;4484;48.928;10.066;2022-12-18T15:50:48;28.03;;;14.97;;
8895;SDS011;4484;48.928;10.066;2022-12-18T15:53:17;41.17;;;21.80;;
8895;SDS011;4484;48.928;10.066;2022-12-18T15:55:44;39.50;;;19.10;;
8895;SDS011;4484;48.928;10.066;2022-12-18T15:58:30;38.60;;;17.60;;
8895;SDS011;4484;48.928;10.066;2022-12-18T16:00:59;61.63;;;28.63;;
8895;SDS011;4484;48.928;10.066;2022-12-18T16:03:27;62.27;;;27.83;;
8895;SDS011;4484;48.928;10.066;2022-12-18T16:05:55;47.77;;;23.43;;
8895;SDS011;4484;48.928;10.066;2022-12-18T16:08:23;49.13;;;20.87;;
8895;SDS011;4484;48.928;10.066;2022-12-18T16:10:50;39.03;;;18.70;;
8895;SDS011;4484;48.928;10.066;2022-12-18T16:13:17;36.60;;;16.97;;
8895;SDS011;4484;48.928;10.066;2022-12-18T16:15:46;31.67;;;15.57;;
8895;SDS011;4484;48.928;10.066;2022-12-18T16:18:13;33.40;;;14.30;;
8895;SDS011;4484;48.928;10.066;2022-12-18T16:20:41;29.13;;;15.20;;
8895;SDS011;4484;48.928;10.066;2022-12-18T16:23:08;32.70;;;15.03;;
8895;SDS011;4484;48.928;10.066;2022-12-18T16:25:34;30.63;;;14.50;;
8895;SDS011;4484;48.928;10.066;2022-12-18T16:28:01;30.00;;;14.90;;
8895;SDS011;4484;48.928;10.066;2022-12-18T16:30:29;33.43;;;16.20;;
8895;SDS011;4484;48.928;10.066;2022-12-18T16:33:03;30.73;;;15.10;;
8895;SDS011;4484;48.928;10.066;2022-12-18T16:35:33;32.13;;;15.60;;
8895;SDS011;4484;48.928;10.066;2022-12-18T16:38:00;36.37;;;15.13;;
8895;SDS011;4484;48.928;10.066;2022-12-18T16:40:27;30.80;;;14.43;;
8895;SDS011;4484;48.928;10.066;2022-12-18T16:42:54;29.90;;;14.20;;
8895;SDS011;4484;48.928;10.066;2022-12-18T16:45:21;37.40;;;16.27;;
8895;SDS011;4484;48.928;10.066;2022-12-18T16:47:48;29.93;;;14.00;;
8895;SDS011;4484;48.928;10.066;2022-12-18T16:50:15;31.83;;;15.13;;
8895;SDS011;4484;48.928;10.066;2022-12-18T16:52:42;24.77;;;13.13;;
8895;SDS011;4484;48.928;10.066;2022-12-18T16:55:10;41.87;;;19.30;;
8895;SDS011;4484;48.928;10.066;2022-12-18T16:57:38;31.73;;;15.30;;
8895;SDS011;4484;48.928;10.066;2022-12-18T17:00:05;35.40;;;16.57;;
8895;SDS011;4484;48.928;10.066;2022-12-18T17:02:32;42.23;;;19.87;;
8895;SDS011;4484;48.928;10.066;2022-12-18T17:05:00;34.87;;;16.43;;
8895;SDS011;4484;48.928;10.066;2022-12-18T17:07:27;34.50;;;16.20;;
8895;SDS011;4484;48.928;10.066;2022-12-18T17:09:54;40.70;;;18.63;;
8895;SDS011;4484;48.928;10.066;2022-12-18T17:12:21;33.77;;;16.20;;
8895;SDS011;4484;48.928;10.066;2022-12-18T17:14:48;32.30;;;15.53;;
8895;SDS011;4484;48.928;10.066;2022-12-18T17:17:15;35.43;;;16.53;;
8895;SDS011;4484;48.928;10.066;2022-12-18T17:19:48;34.03;;;16.37;;
8895;SDS011;4484;48.928;10.066;2022-12-18T17:22:15;39.53;;;18.73;;
8895;SDS011;4484;48.928;10.066;2022-12-18T17:24:42;41.77;;;19.93;;
8895;SDS011;4484;48.928;10.066;2022-12-18T17:27:09;37.80;;;18.30;;
8895;SDS011;4484;48.928;10.066;2022-12-18T17:29:36;39.03;;;17.80;;
8895;SDS011;4484;48.928;10.066;2022-12-18T17:32:12;37.07;;;17.47;;